createdAt,value
2022-11-21T00:01:28.498Z,53.29
2022-11-21T00:03:55.543Z,52.91
2022-11-21T00:06:23.824Z,52.71
2022-11-21T00:08:51.297Z,53.27
2022-11-21T00:11:18.412Z,53.03
2022-11-21T00:13:45.631Z,53.21
2022-11-21T00:16:15.660Z,53.08
2022-11-21T00:18:44.199Z,52.92
2022-11-21T00:21:17.779Z,53.20
2022-11-21T00:23:46.483Z,53.21
2022-11-21T00:26:15.982Z,53.12
2022-11-21T00:28:43.286Z,53.03
2022-11-21T00:31:20.523Z,53.02
2022-11-21T00:33:47.846Z,53.06
2022-11-21T00:36:15.189Z,53.43
2022-11-21T00:38:42.237Z,53.09
2022-11-21T00:41:09.379Z,53.16
2022-11-21T00:43:36.497Z,53.88
2022-11-21T00:46:04.416Z,53.60
2022-11-21T00:48:32.486Z,53.56
2022-11-21T00:51:02.769Z,53.60
2022-11-21T00:53:30.246Z,54.06
2022-11-21T00:55:58.010Z,54.06
2022-11-21T00:58:25.781Z,53.82
2022-11-21T01:00:53.302Z,54.25
2022-11-21T01:03:20.524Z,54.24
2022-11-21T01:05:47.608Z,54.37
2022-11-21T01:08:14.699Z,54.13
2022-11-21T01:10:41.763Z,54.28
2022-11-21T01:13:08.918Z,54.48
2022-11-21T01:15:35.953Z,54.75
2022-11-21T01:18:03.394Z,54.35
2022-11-21T01:20:30.462Z,54.50
2022-11-21T01:22:57.550Z,54.14
2022-11-21T01:25:24.745Z,54.50
2022-11-21T01:27:51.818Z,54.25
2022-11-21T01:30:18.998Z,54.14
2022-11-21T01:32:49.697Z,53.88
2022-11-21T01:35:17.898Z,53.81
2022-11-21T01:37:49.378Z,53.69
2022-11-21T01:40:17.117Z,53.52
2022-11-21T01:43:00.320Z,53.83
2022-11-21T01:46:07.969Z,53.75
2022-11-21T01:48:43.336Z,53.72
2022-11-21T01:51:38.790Z,53.74
2022-11-21T01:54:20.546Z,53.74
2022-11-21T01:56:58.968Z,54.21
2022-11-21T01:59:36.284Z,54.84
2022-11-21T02:02:08.931Z,54.74
2022-11-21T02:04:37.200Z,54.73
2022-11-21T02:07:07.287Z,54.42
2022-11-21T02:09:38.034Z,54.53
2022-11-21T02:12:13.696Z,54.80
2022-11-21T02:14:43.011Z,55.26
2022-11-21T02:17:10.917Z,55.06
2022-11-21T02:19:50.489Z,55.49
2022-11-21T02:22:49.321Z,55.13
2022-11-21T02:25:24.170Z,55.40
2022-11-21T02:27:56.450Z,55.96
2022-11-21T02:30:24.000Z,56.09
2022-11-21T02:32:51.127Z,55.95
2022-11-21T02:35:19.555Z,55.79
2022-11-21T02:37:55.244Z,55.80
2022-11-21T02:40:49.848Z,55.81
2022-11-21T02:43:24.613Z,55.48
2022-11-21T02:45:51.855Z,55.39
2022-11-21T02:48:19.096Z,55.40
2022-11-21T02:50:47.535Z,55.33
2022-11-21T02:53:17.971Z,55.55
2022-11-21T02:55:45.664Z,55.34
2022-11-21T02:58:13.165Z,55.12
2022-11-21T03:00:42.968Z,55.38
2022-11-21T03:03:10.265Z,55.52
2022-11-21T03:05:39.181Z,55.52
2022-11-21T03:08:06.798Z,55.40
2022-11-21T03:10:34.426Z,55.31
2022-11-21T03:13:01.740Z,55.17
2022-11-21T03:15:33.088Z,54.97
2022-11-21T03:18:04.357Z,54.77
2022-11-21T03:20:34.457Z,55.15
2022-11-21T03:23:02.119Z,55.20
2022-11-21T03:25:30.004Z,55.80
2022-11-21T03:27:57.182Z,55.71
2022-11-21T03:30:27.272Z,55.68
2022-11-21T03:32:58.223Z,55.63
2022-11-21T03:35:25.725Z,55.42
2022-11-21T03:37:52.814Z,55.41
2022-11-21T03:40:20.066Z,55.58
2022-11-21T03:42:47.329Z,55.59
2022-11-21T03:45:14.566Z,55.73
2022-11-21T03:47:42.128Z,56.07
2022-11-21T03:50:10.793Z,56.09
2022-11-21T03:52:37.852Z,56.13
2022-11-21T03:55:05.526Z,56.31
2022-11-21T03:57:32.596Z,56.37
2022-11-21T03:59:59.918Z,56.61
2022-11-21T04:02:26.971Z,56.72
2022-11-21T04:04:54.044Z,56.79
2022-11-21T04:07:21.164Z,56.61
2022-11-21T04:09:48.221Z,56.58
2022-11-21T04:12:15.273Z,56.63
2022-11-21T04:14:42.250Z,56.93
2022-11-21T04:17:09.451Z,56.73
2022-11-21T04:19:36.463Z,56.86
2022-11-21T04:22:03.815Z,56.69
2022-11-21T04:24:31.204Z,56.61
2022-11-21T04:26:58.393Z,56.04
2022-11-21T04:29:25.624Z,55.92
2022-11-21T04:31:52.741Z,55.93
2022-11-21T04:34:19.840Z,56.50
2022-11-21T04:36:46.979Z,56.36
2022-11-21T04:39:14.227Z,56.06
2022-11-21T04:41:41.315Z,56.38
2022-11-21T04:44:08.468Z,56.56
2022-11-21T04:46:35.633Z,56.64
2022-11-21T04:49:03.024Z,56.74
2022-11-21T04:51:30.187Z,56.24
2022-11-21T04:53:57.446Z,56.32
2022-11-21T04:56:24.546Z,56.55
2022-11-21T04:58:53.598Z,56.37
2022-11-21T05:01:20.848Z,55.76
2022-11-21T05:03:48.100Z,55.83
2022-11-21T05:06:15.229Z,55.64
2022-11-21T05:08:42.441Z,55.53
2022-11-21T05:11:28.412Z,56.29
2022-11-21T05:13:55.973Z,56.49
2022-11-21T05:16:23.453Z,56.02
2022-11-21T05:18:50.605Z,56.03
2022-11-21T05:21:17.683Z,55.87
2022-11-21T05:23:44.828Z,55.14
2022-11-21T05:26:11.906Z,55.42
2022-11-21T05:28:38.984Z,55.83
2022-11-21T05:31:06.128Z,55.89
2022-11-21T05:33:33.512Z,56.18
2022-11-21T05:36:00.635Z,56.90
2022-11-21T05:38:27.736Z,56.76
2022-11-21T05:40:54.819Z,57.18
2022-11-21T05:43:40.257Z,57.67
2022-11-21T05:46:07.348Z,57.66
2022-11-21T05:48:36.643Z,57.47
2022-11-21T05:51:05.027Z,57.43
2022-11-21T05:53:32.541Z,57.66
2022-11-21T05:56:07.437Z,57.61
2022-11-21T05:58:35.569Z,57.55
2022-11-21T06:01:03.978Z,57.84
2022-11-21T06:03:35.423Z,57.70
2022-11-21T06:06:07.880Z,58.19
2022-11-21T06:08:46.530Z,57.76
2022-11-21T06:11:16.539Z,57.82
2022-11-21T06:13:44.688Z,58.35
2022-11-21T06:16:15.437Z,58.19
2022-11-21T06:18:46.127Z,58.00
2022-11-21T06:21:19.409Z,57.82
2022-11-21T06:23:48.071Z,57.94
2022-11-21T06:26:17.238Z,57.41
2022-11-21T06:28:45.766Z,57.57
2022-11-21T06:31:21.408Z,57.68
2022-11-21T06:33:52.553Z,57.65
2022-11-21T06:36:20.001Z,57.05
2022-11-21T06:38:47.474Z,56.74
2022-11-21T06:41:23.675Z,56.35
2022-11-21T06:43:50.842Z,56.29
2022-11-21T06:46:19.101Z,56.45
2022-11-21T06:48:46.505Z,57.03
2022-11-21T06:51:24.968Z,58.06
2022-11-21T06:53:58.043Z,59.22
2022-11-21T06:56:27.316Z,60.03
2022-11-21T06:58:55.877Z,59.85
2022-11-21T07:01:24.041Z,59.20
2022-11-21T07:03:51.896Z,59.83
2022-11-21T07:06:18.973Z,59.68
2022-11-21T07:08:46.245Z,59.72
2022-11-21T07:11:30.097Z,59.71
2022-11-21T07:13:57.168Z,59.51
2022-11-21T07:16:26.340Z,59.93
2022-11-21T07:18:53.786Z,60.17
2022-11-21T07:21:20.906Z,59.71
2022-11-21T07:23:48.781Z,59.59
2022-11-21T07:26:15.987Z,60.13
2022-11-21T07:28:43.355Z,60.81
2022-11-21T07:31:13.939Z,61.28
2022-11-21T07:33:46.762Z,60.94
2022-11-21T07:36:14.716Z,61.27
2022-11-21T07:38:42.332Z,61.04
2022-11-21T07:41:10.374Z,62.01
2022-11-21T07:43:37.546Z,62.31
2022-11-21T07:46:04.870Z,61.77
2022-11-21T07:48:31.978Z,61.36
2022-11-21T07:50:59.307Z,61.23
2022-11-21T07:53:26.432Z,60.72
2022-11-21T07:55:53.550Z,61.35
2022-11-21T07:58:20.715Z,61.21
2022-11-21T08:00:47.876Z,61.85
2022-11-21T08:03:15.183Z,61.28
2022-11-21T08:05:44.373Z,60.70
2022-11-21T08:08:13.330Z,60.61
2022-11-21T08:10:45.406Z,61.14
2022-11-21T08:13:13.751Z,62.02
2022-11-21T08:15:41.353Z,61.93
2022-11-21T08:18:14.699Z,61.70
2022-11-21T08:20:42.938Z,61.10
2022-11-21T08:23:10.896Z,61.26
2022-11-21T08:25:40.324Z,61.03
2022-11-21T08:28:09.132Z,59.87
2022-11-21T08:30:37.786Z,59.00
2022-11-21T08:33:05.978Z,60.00
2022-11-21T08:35:33.223Z,60.35
2022-11-21T08:38:01.981Z,60.35
2022-11-21T08:40:31.901Z,60.81
2022-11-21T08:43:00.606Z,61.00
2022-11-21T08:45:27.833Z,60.40
2022-11-21T08:47:55.399Z,60.82
2022-11-21T08:50:23.780Z,61.32
2022-11-21T08:52:51.279Z,61.00
2022-11-21T08:55:18.576Z,60.36
2022-11-21T08:57:45.686Z,59.95
2022-11-21T09:00:15.733Z,59.64
2022-11-21T09:02:42.990Z,59.29
2022-11-21T09:05:10.617Z,59.04
2022-11-21T09:07:37.846Z,60.22
2022-11-21T09:10:05.734Z,59.98
2022-11-21T09:12:32.935Z,59.06
2022-11-21T09:15:18.429Z,59.41
2022-11-21T09:18:03.519Z,58.64
2022-11-21T09:20:40.298Z,59.02
2022-11-21T09:23:13.756Z,58.66
2022-11-21T09:25:41.242Z,58.67
2022-11-21T09:28:11.148Z,58.40
2022-11-21T09:30:39.825Z,58.42
2022-11-21T09:33:15.200Z,58.02
2022-11-21T09:35:42.436Z,58.23
2022-11-21T09:38:10.044Z,57.95
2022-11-21T09:40:42.299Z,58.53
2022-11-21T09:43:45.775Z,58.01
2022-11-21T09:46:17.892Z,58.15
2022-11-21T09:48:59.198Z,57.64
2022-11-21T09:51:31.318Z,57.17
2022-11-21T09:54:19.670Z,57.81
2022-11-21T09:56:48.589Z,57.81
2022-11-21T09:59:37.233Z,58.04
2022-11-21T10:02:16.215Z,57.50
2022-11-21T10:04:45.522Z,57.37
2022-11-21T10:07:18.415Z,56.67
2022-11-21T10:10:32.973Z,56.46
2022-11-21T10:13:34.543Z,57.31
2022-11-21T10:16:24.354Z,56.15
2022-11-21T10:19:18.480Z,56.58
2022-11-21T10:22:18.193Z,56.62
2022-11-21T10:25:03.904Z,56.64
2022-11-21T10:27:50.554Z,56.34
2022-11-21T10:30:20.934Z,56.00
2022-11-21T10:32:57.568Z,56.49
2022-11-21T10:35:35.846Z,57.02
2022-11-21T10:38:25.590Z,56.36
2022-11-21T10:41:05.199Z,57.09
2022-11-21T10:44:02.653Z,56.55
2022-11-21T10:46:29.834Z,56.70
2022-11-21T10:49:03.794Z,56.19
2022-11-21T10:51:50.648Z,57.16
2022-11-21T10:54:33.169Z,56.74
2022-11-21T10:57:23.152Z,56.53
2022-11-21T11:00:13.012Z,56.21
2022-11-21T11:03:00.365Z,55.98
2022-11-21T11:05:29.896Z,55.48
2022-11-21T11:08:14.851Z,55.27
2022-11-21T11:11:04.536Z,55.88
2022-11-21T11:13:45.926Z,55.75
2022-11-21T11:16:19.531Z,55.74
2022-11-21T11:18:55.298Z,56.27
2022-11-21T11:21:29.455Z,56.49
2022-11-21T11:24:27.538Z,57.21
2022-11-21T11:27:00.243Z,56.88
2022-11-21T11:29:34.935Z,56.90
2022-11-21T11:32:21.659Z,57.10
2022-11-21T11:35:00.192Z,56.99
2022-11-21T11:37:47.215Z,56.07
2022-11-21T11:40:21.292Z,56.00
2022-11-21T11:43:38.450Z,56.27
2022-11-21T11:46:32.700Z,56.80
2022-11-21T11:49:21.111Z,56.59
2022-11-21T11:51:55.055Z,56.85
2022-11-21T11:54:47.078Z,56.23
2022-11-21T11:57:14.753Z,55.47
2022-11-21T11:59:50.102Z,55.29
2022-11-21T12:02:29.535Z,55.76
2022-11-21T12:05:15.258Z,56.38
2022-11-21T12:11:35.924Z,55.89
2022-11-21T12:14:37.669Z,55.92
2022-11-21T12:17:09.321Z,55.60
2022-11-21T12:19:38.665Z,55.42
2022-11-21T12:22:06.743Z,54.93
2022-11-21T12:24:39.830Z,54.92
2022-11-21T12:27:28.890Z,55.57
2022-11-21T12:30:09.511Z,55.23
2022-11-21T12:33:08.220Z,55.06
2022-11-21T12:36:17.837Z,54.81
2022-11-21T12:39:06.127Z,54.48
2022-11-21T12:42:11.998Z,54.01
2022-11-21T12:44:42.322Z,53.56
2022-11-21T12:47:18.337Z,53.54
2022-11-21T12:50:32.472Z,53.52
2022-11-21T12:53:32.137Z,53.34
2022-11-21T12:56:15.167Z,52.22
2022-11-21T12:58:48.728Z,52.40
2022-11-21T13:02:07.156Z,52.63
2022-11-21T13:04:38.803Z,52.51
2022-11-21T13:07:07.845Z,52.21
2022-11-21T13:09:42.631Z,52.67
2022-11-21T13:12:23.183Z,52.16
2022-11-21T13:15:02.824Z,52.26
2022-11-21T13:17:52.090Z,52.49
2022-11-21T13:20:39.330Z,52.71
2022-11-21T13:23:32.256Z,52.63
2022-11-21T13:25:59.488Z,52.94
2022-11-21T13:28:34.860Z,52.51
2022-11-21T13:31:06.580Z,52.59
2022-11-21T13:33:39.336Z,52.54
2022-11-21T13:36:27.892Z,52.38
2022-11-21T13:38:55.095Z,52.62
2022-11-21T13:41:53.567Z,52.74
2022-11-21T13:44:32.973Z,52.54
2022-11-21T13:47:20.316Z,52.17
2022-11-21T13:50:15.433Z,52.01
2022-11-21T13:53:18.534Z,52.57
2022-11-21T13:56:26.697Z,52.94
2022-11-21T13:59:38.554Z,53.09
2022-11-21T14:02:33.235Z,53.00
2022-11-21T14:05:12.193Z,52.65
2022-11-21T14:07:41.662Z,52.82
2022-11-21T14:10:33.619Z,52.72
2022-11-21T14:13:03.231Z,52.63
2022-11-21T14:15:52.815Z,52.72
2022-11-21T14:18:25.344Z,52.42
2022-11-21T14:21:01.096Z,52.70
2022-11-21T14:23:34.675Z,53.03
2022-11-21T14:26:13.036Z,52.89
2022-11-21T14:28:40.152Z,53.07
2022-11-21T14:31:10.006Z,53.41
2022-11-21T14:33:42.976Z,53.52
2022-11-21T14:36:26.056Z,53.65
2022-11-21T14:39:35.402Z,54.03
2022-11-21T14:41:57.159Z,53.61
2022-11-21T14:44:25.155Z,53.64
2022-11-21T14:47:13.388Z,53.90
2022-11-21T14:50:01.076Z,54.32
2022-11-21T14:52:34.171Z,54.45
2022-11-21T14:55:29.294Z,54.46
2022-11-21T14:57:55.856Z,54.44
2022-11-21T15:00:58.046Z,54.35
2022-11-21T15:06:11.330Z,54.88
2022-11-21T15:11:47.331Z,55.48
2022-11-21T15:14:39.653Z,55.42
2022-11-21T15:17:13.474Z,55.39
2022-11-21T15:19:42.695Z,55.52
2022-11-21T15:22:36.651Z,55.78
2022-11-21T15:25:19.085Z,55.99
2022-11-21T15:27:51.512Z,56.16
2022-11-21T15:30:18.649Z,55.93
2022-11-21T15:33:07.452Z,55.84
2022-11-21T15:35:57.762Z,56.56
2022-11-21T15:38:30.755Z,56.64
2022-11-21T15:41:09.810Z,56.34
2022-11-21T15:43:42.854Z,56.14
2022-11-21T15:46:24.011Z,56.02
2022-11-21T15:49:25.151Z,56.28
2022-11-21T15:54:38.222Z,56.34
2022-11-21T15:57:06.271Z,56.13
2022-11-21T15:57:14.418Z,56.09
2022-11-21T15:57:15.993Z,54.91
2022-11-21T15:59:33.509Z,56.11
2022-11-21T16:02:00.660Z,55.95
2022-11-21T16:04:27.914Z,55.91
2022-11-21T16:06:55.642Z,56.09
2022-11-21T16:09:23.134Z,56.35
2022-11-21T16:11:50.382Z,56.38
2022-11-21T16:14:20.949Z,56.46
2022-11-21T16:16:48.080Z,56.34
2022-11-21T16:19:16.168Z,56.15
2022-11-21T16:21:43.489Z,55.93
2022-11-21T16:24:10.705Z,55.93
2022-11-21T16:26:40.212Z,55.71
2022-11-21T16:29:07.295Z,55.85
2022-11-21T16:31:34.849Z,55.47
2022-11-21T16:34:02.591Z,55.60
2022-11-21T16:36:31.528Z,55.66
2022-11-21T16:39:09.037Z,55.69
2022-11-21T16:41:39.530Z,55.49
2022-11-21T16:44:16.404Z,55.39
2022-11-21T16:46:48.164Z,55.61
2022-11-21T16:49:15.347Z,55.89
2022-11-21T16:51:42.694Z,55.82
2022-11-21T16:54:09.926Z,56.20
2022-11-21T16:56:37.340Z,56.23
2022-11-21T16:59:04.581Z,56.19
2022-11-21T17:01:32.019Z,56.12
2022-11-21T17:03:59.470Z,55.90
2022-11-21T17:06:30.378Z,56.08
2022-11-21T17:09:01.235Z,55.91
2022-11-21T17:11:31.233Z,55.80
2022-11-21T17:14:06.478Z,55.69
2022-11-21T17:16:35.568Z,56.09
2022-11-21T17:19:03.865Z,55.97
2022-11-21T17:21:32.457Z,55.93
2022-11-21T17:23:59.616Z,55.90
2022-11-21T17:26:28.775Z,55.83
2022-11-21T17:29:01.243Z,55.71
2022-11-21T17:31:28.662Z,55.65
2022-11-21T17:34:00.978Z,55.05
2022-11-21T17:36:30.493Z,55.22
2022-11-21T17:38:57.837Z,55.68
2022-11-21T17:41:26.214Z,55.90
2022-11-21T17:43:57.996Z,56.43
2022-11-21T17:46:26.699Z,56.68
2022-11-21T17:48:58.103Z,57.20
2022-11-21T17:51:32.305Z,57.57
2022-11-21T17:54:00.788Z,57.63
2022-11-21T17:56:31.095Z,57.94
2022-11-21T17:58:58.263Z,58.19
2022-11-21T18:01:25.480Z,58.54
2022-11-21T18:04:15.042Z,58.68
2022-11-21T18:06:42.488Z,58.43
2022-11-21T18:09:13.569Z,58.53
2022-11-21T18:11:41.043Z,58.49
2022-11-21T18:14:10.665Z,58.80
2022-11-21T18:16:39.607Z,58.54
2022-11-21T18:19:09.445Z,58.70
2022-11-21T18:21:36.575Z,59.11
2022-11-21T18:24:03.945Z,59.16
2022-11-21T18:26:34.672Z,59.08
2022-11-21T18:31:57.378Z,59.24
2022-11-21T18:34:43.103Z,59.48
2022-11-21T18:37:10.644Z,59.61
2022-11-21T18:39:37.677Z,59.94
2022-11-21T18:42:04.816Z,60.18
2022-11-21T18:44:31.868Z,60.38
2022-11-21T18:46:59.130Z,60.42
2022-11-21T18:49:26.495Z,59.67
2022-11-21T18:51:53.954Z,59.90
2022-11-21T18:54:20.959Z,60.25
2022-11-21T18:56:48.086Z,60.18
2022-11-21T18:59:15.313Z,60.18
2022-11-21T19:01:42.487Z,59.61
2022-11-21T19:04:12.161Z,59.93
2022-11-21T19:06:39.402Z,59.67
2022-11-21T19:09:08.206Z,59.99
2022-11-21T19:11:35.346Z,60.23
2022-11-21T19:14:02.521Z,60.61
2022-11-21T19:16:31.558Z,60.70
2022-11-21T19:19:33.129Z,60.63
2022-11-21T19:21:47.294Z,60.84
2022-11-21T19:24:16.277Z,60.77
2022-11-21T19:26:43.697Z,60.85
2022-11-21T19:29:11.263Z,61.15
2022-11-21T19:31:44.725Z,61.15
2022-11-21T19:34:14.821Z,61.37
2022-11-21T19:36:42.616Z,61.30
2022-11-21T19:39:10.139Z,61.17
2022-11-21T19:41:37.569Z,61.03
2022-11-21T19:44:04.997Z,61.25
2022-11-21T19:46:35.995Z,60.69
2022-11-21T19:49:04.533Z,60.76
2022-11-21T19:51:41.362Z,60.91
2022-11-21T19:54:12.098Z,61.09
2022-11-21T19:56:39.891Z,61.19
2022-11-21T19:59:06.964Z,61.11
2022-11-21T20:01:35.532Z,60.85
2022-11-21T20:04:05.321Z,61.07
2022-11-21T20:06:41.433Z,61.17
2022-11-21T20:09:16.157Z,61.01
2022-11-21T20:11:46.486Z,61.25
2022-11-21T20:14:20.950Z,61.34
2022-11-21T20:16:50.308Z,61.43
2022-11-21T20:19:19.867Z,61.17
2022-11-21T20:21:47.928Z,61.72
2022-11-21T20:24:15.975Z,61.70
2022-11-21T20:26:43.843Z,61.72
2022-11-21T20:29:13.610Z,61.96
2022-11-21T20:31:40.853Z,62.10
2022-11-21T20:34:13.862Z,61.86
2022-11-21T20:36:42.299Z,61.46
2022-11-21T20:39:18.911Z,61.50
2022-11-21T20:41:48.061Z,61.68
2022-11-21T20:45:30.169Z,61.87
2022-11-21T20:47:07.865Z,61.97
2022-11-21T20:49:35.773Z,61.83
2022-11-21T20:54:50.097Z,61.88
2022-11-21T20:57:17.279Z,61.61
2022-11-21T20:59:44.334Z,61.23
2022-11-21T21:02:14.969Z,60.91
2022-11-21T21:04:42.631Z,61.08
2022-11-21T21:07:10.132Z,61.04
2022-11-21T21:09:37.301Z,61.21
2022-11-21T21:12:05.690Z,61.12
2022-11-21T21:14:32.970Z,61.03
2022-11-21T21:17:00.087Z,61.26
2022-11-21T21:19:27.522Z,61.44
2022-11-21T21:21:54.887Z,61.52
2022-11-21T21:24:22.002Z,61.39
2022-11-21T21:26:49.759Z,61.67
2022-11-21T21:29:20.278Z,61.62
2022-11-21T21:31:51.738Z,61.71
2022-11-21T21:34:21.403Z,61.47
2022-11-21T21:36:49.182Z,61.68
2022-11-21T21:39:16.443Z,61.55
2022-11-21T21:41:47.379Z,61.77
2022-11-21T21:44:15.823Z,61.62
2022-11-21T21:46:43.166Z,61.55
2022-11-21T21:49:10.424Z,61.48
2022-11-21T21:51:37.763Z,61.34
2022-11-21T21:54:06.468Z,61.48
2022-11-21T21:56:34.185Z,61.55
2022-11-21T21:59:01.448Z,61.43
2022-11-21T22:01:31.628Z,61.47
2022-11-21T22:04:03.813Z,61.50
2022-11-21T22:06:33.982Z,61.39
2022-11-21T22:09:02.242Z,61.34
2022-11-21T22:11:32.325Z,61.33
2022-11-21T22:14:03.202Z,61.35
2022-11-21T22:16:31.172Z,61.52
2022-11-21T22:18:58.468Z,61.54
2022-11-21T22:21:33.815Z,61.77
2022-11-21T22:26:51.381Z,61.32
2022-11-21T22:29:18.466Z,61.43
2022-11-21T22:31:45.557Z,61.20
2022-11-21T22:34:14.128Z,60.81
2022-11-21T22:36:41.640Z,60.85
2022-11-21T22:39:09.202Z,61.11
2022-11-21T22:41:36.537Z,61.04
2022-11-21T22:44:03.936Z,61.59
2022-11-21T22:46:31.201Z,61.31
2022-11-21T22:48:58.553Z,61.27
2022-11-21T22:51:29.530Z,61.25
2022-11-21T22:53:57.524Z,61.21
2022-11-21T22:56:26.075Z,61.47
2022-11-21T22:58:53.420Z,61.64
2022-11-21T23:01:24.276Z,61.56
2022-11-21T23:03:51.866Z,61.46
2022-11-21T23:06:23.591Z,61.34
2022-11-21T23:08:55.982Z,61.37
2022-11-21T23:11:27.703Z,60.62
2022-11-21T23:13:56.853Z,60.39
2022-11-21T23:16:25.230Z,60.07
2022-11-21T23:18:54.342Z,60.02
2022-11-21T23:21:21.652Z,59.85
2022-11-21T23:23:49.028Z,59.47
2022-11-21T23:26:16.158Z,59.42
2022-11-21T23:28:43.297Z,59.18
2022-11-21T23:31:10.889Z,58.93
2022-11-21T23:33:38.039Z,59.09
2022-11-21T23:36:05.782Z,58.93
2022-11-21T23:38:32.844Z,59.33
2022-11-21T23:40:59.893Z,59.29
2022-11-21T23:43:27.341Z,59.02
2022-11-21T23:45:55.086Z,58.82
2022-11-21T23:48:24.209Z,58.89
2022-11-21T23:50:52.112Z,59.13
2022-11-21T23:53:20.238Z,59.18
2022-11-21T23:55:48.417Z,59.21
2022-11-21T23:58:16.191Z,59.36
